aviador You're here:

KFLP Decoded Metar

FLIPPIN (AWOS) in AR, USA
Report Time2018-01-21 16:56:00
UTC Time2018-01-21 18:25:44
Flight Rules Old
Wind180° at 09 Gusting to 16 kt
W.Decomp.*RWY 22: 6.6 kt HW 6.1 kt LCW
W.Rank180° ranks 12
Current wind is above 180° avg. (5.7)
Visibility9999 m
Phenomena:N/A
Clouds:Scattered 022 Hf
Broken 048 Hf
Expected CloudBase > 2,000 ft AGL from Temp-Dew spread
Ceiling4,800 ft
Temp19°C (ISA +5)
Dew Point14°C (73% RH)
AAT17.0°C
QNH1014 hPa
Density Alt1,539 ft
Elevation719 ft
Report Wrong Elevation
Raw Report
KFLP 211656Z AUTO 18009G16KT 10SM SCT022 BKN048 19/14 A2995 RMK
AO2 SLP139 T01940139=

Extra information for KFLP:More info

Metar Taf Metar & Taf Last 4 Metars F.Rules Stats Wind Profile Meteogram Temp Stats Airport Information Weather charts Add Link Nearby VenuesMetar ALERT Operation Metar Decoded Social comments

AIRNAV info for KFLP